This is the latest recevied weather packets stored in our database for station/object K7TUS-6. If no packets are shown the sender has not sent any weather packets the latest 10 day(s).
| Time | Temp. | Humidity | Pressure | Rain* | Wind** | Luminosity | Snow |
|---|---|---|---|---|---|---|---|
| 1777716306 | 9.44° C | 1% | 983.3 hPa | - | - | - | - |
| 1777716006 | 8.89° C | 3% | 982.7 hPa | - | - | - | - |
| 1777715406 | 7.78° C | 8% | 982.7 hPa | - | - | - | - |
| 1777714805 | 8.89° C | 3% | 983.2 hPa | - | - | - | - |
| 1777714504 | 8.89° C | 4% | 983.3 hPa | - | - | - | - |
| 1777714204 | 8.33° C | 5% | 982.4 hPa | - | - | - | - |
| 1777713909 | 8.33° C | 6% | 983.2 hPa | - | - | - | - |
| 1777713608 | 8.33° C | 6% | 983.3 hPa | - | - | - | - |
| 1777713308 | 7.78° C | 6% | 983.9 hPa | - | - | - | - |
| 1777713007 | 7.78° C | 6% | 983.2 hPa | - | - | - | - |
| 1777712707 | 8.33° C | 6% | 983.9 hPa | - | - | - | - |
| 1777712406 | 8.33° C | 4% | 983.7 hPa | - | - | - | - |
| 1777711805 | 8.33° C | 4% | 984.2 hPa | - | - | - | - |
| 1777711505 | 8.33° C | 3% | 983.8 hPa | - | - | - | - |
| 1777711204 | 8.89° C | 4% | 983.6 hPa | - | - | - | - |
| 1777710904 | 8.33° C | 2% | 984.2 hPa | - | - | - | - |
| 1777710603 | 8.89° C | 3% | 983.8 hPa | - | - | - | - |
| 1777710308 | 8.33° C | 4% | 983.5 hPa | - | - | - | - |
| 1777709708 | 8.33° C | 5% | 984.2 hPa | - | - | - | - |
| 1777709407 | 8.33° C | 6% | 983.9 hPa | - | - | - | - |
| 1777709107 | 8.33° C | 5% | 984 hPa | - | - | - | - |
| 1777708506 | 8.33° C | 6% | 984.2 hPa | - | - | - | - |
| 1777708206 | 7.78° C | 6% | 984 hPa | - | - | - | - |
| 1777707604 | 8.33° C | 6% | 983.6 hPa | - | - | - | - |
| 1777707304 | 7.78° C | 7% | 983.4 hPa | - | - | - | - |
* Rain since midnight (hover to see other rain measurements)
** Current wind speed in m/s (hover to see current wind gust speed)